Hauptseite
METAR-TAF:

METAR-TAF

Flughäfen :

Olean, New York, Vereinigte Staaten

Breite: 42-14-28N, Länge: 078-22-17W, Höhe: 651 m

Beobachtung

Neuester Wetterbericht von vor 22 Minuten, um 01:35 UTC
Windstille
Temperatur -6°C
Luftfeuchtigkeit 100%
Luftdruck 1018 hPa
Sichtweite: 11.3 km
Geschlossene Wolkendecke in der Höhe von 900 ft
Schnee leicht

METAR: KOLE 160135Z AUTO 00000KT 7SM -SN OVC009 M06/M06 A3007 RMK AO2

Zeit: 20:57 (01:57 UTC)


TAF: fehlend

Wetterbeobachtungen und Prognosen von mehr als 4000 Flughäfen (METAR und TAF Bericht).

Die verfügbaren Stationen werden durch gelbe und rote Markierungen auf der Karte dargestellt.

Führen Sie die Maus auf sie, um den Namen der Station zu sehen.

Darauf klicken, um die Beobachtung von Wetterbeobachtungen und Prognosen zu sehen.

Um die Karte zu ändern : klicken Sie auf den grünen Tasten mit einem schwarzen Kreuz Zum Vergrößern, auf den grünen Button mit einem Gedankenstrich zu verkleinern, oder auf die grünen Pfeile für benachbarte Karten.


METAR-TAF: